createdAt,value
2018-05-10T00:00:24.592Z,0
2018-05-10T00:01:33.235Z,0
2018-05-10T00:02:41.891Z,0
2018-05-10T00:03:50.534Z,0
2018-05-10T00:04:59.185Z,0
2018-05-10T00:06:07.819Z,0
2018-05-10T00:07:16.471Z,0
2018-05-10T00:08:25.386Z,0
2018-05-10T00:09:34.297Z,0
2018-05-10T00:10:42.943Z,0
2018-05-10T00:11:51.591Z,0
2018-05-10T00:13:00.237Z,0
2018-05-10T00:14:08.886Z,0
2018-05-10T00:15:17.536Z,0
2018-05-10T00:16:26.177Z,0
2018-05-10T00:17:34.824Z,0
2018-05-10T00:18:43.471Z,0
2018-05-10T00:19:52.123Z,0
2018-05-10T00:21:00.765Z,0
2018-05-10T00:22:09.413Z,0
2018-05-10T00:23:18.061Z,0
2018-05-10T00:24:27.412Z,0
2018-05-10T00:25:36.414Z,0
2018-05-10T00:26:45.063Z,0
2018-05-10T00:27:53.973Z,0
2018-05-10T00:29:02.626Z,0
2018-05-10T00:30:11.274Z,0
2018-05-10T00:31:19.919Z,0
2018-05-10T00:32:28.563Z,0
2018-05-10T00:33:37.208Z,0
2018-05-10T00:34:46.136Z,0
2018-05-10T00:35:54.782Z,0
2018-05-10T00:37:03.428Z,0
2018-05-10T00:38:12.072Z,0
2018-05-10T00:39:20.729Z,0
2018-05-10T00:40:29.377Z,0
2018-05-10T00:41:38.562Z,0
2018-05-10T00:42:47.202Z,0
2018-05-10T00:43:55.860Z,0
2018-05-10T00:45:04.498Z,0
2018-05-10T00:46:13.146Z,0
2018-05-10T00:47:21.790Z,0
2018-05-10T00:48:30.450Z,0
2018-05-10T00:49:39.363Z,0
2018-05-10T00:50:48.280Z,0
2018-05-10T00:51:56.929Z,0
2018-05-10T00:53:05.572Z,0
2018-05-10T00:54:14.222Z,0
2018-05-10T00:55:22.871Z,0
2018-05-10T00:56:31.521Z,0
2018-05-10T00:57:40.165Z,0
2018-05-10T00:58:48.812Z,0
2018-05-10T00:59:57.726Z,0
2018-05-10T01:01:06.379Z,0
2018-05-10T01:02:15.021Z,0
2018-05-10T01:03:23.670Z,0
2018-05-10T01:04:32.318Z,0
2018-05-10T01:05:40.965Z,0
2018-05-10T01:06:49.880Z,0
2018-05-10T01:07:58.525Z,0
2018-05-10T01:09:07.173Z,0
2018-05-10T01:10:16.091Z,0
2018-05-10T01:11:24.997Z,0
2018-05-10T01:12:33.643Z,0
2018-05-10T01:13:42.289Z,0
2018-05-10T01:14:50.949Z,0
2018-05-10T01:15:59.590Z,0
2018-05-10T01:17:08.240Z,0
2018-05-10T01:18:16.885Z,0
2018-05-10T01:19:25.541Z,0
2018-05-10T01:20:34.186Z,0
2018-05-10T01:21:43.101Z,0
2018-05-10T01:22:51.745Z,0
2018-05-10T01:24:00.395Z,0
2018-05-10T01:25:09.042Z,0
2018-05-10T01:26:17.687Z,0
2018-05-10T01:27:26.334Z,0
2018-05-10T01:28:35.287Z,0
2018-05-10T01:29:43.939Z,0
2018-05-10T01:30:52.586Z,0
2018-05-10T01:32:01.232Z,0
2018-05-10T01:33:10.145Z,0
2018-05-10T01:34:18.797Z,0
2018-05-10T01:35:27.444Z,0
2018-05-10T01:36:36.092Z,0
2018-05-10T01:37:44.734Z,0
2018-05-10T01:38:53.388Z,0
2018-05-10T01:40:02.032Z,0
2018-05-10T01:41:10.681Z,0
2018-05-10T01:42:19.324Z,0
2018-05-10T01:43:27.975Z,0
2018-05-10T01:44:36.619Z,0
2018-05-10T01:45:45.545Z,0
2018-05-10T01:46:54.194Z,0
2018-05-10T01:48:02.835Z,0
2018-05-10T01:49:11.482Z,0
2018-05-10T01:50:20.127Z,0
2018-05-10T01:51:28.781Z,0
2018-05-10T01:52:37.423Z,0
2018-05-10T01:53:46.063Z,0
2018-05-10T01:54:54.708Z,0
2018-05-10T01:56:03.621Z,0
2018-05-10T01:57:12.264Z,0
2018-05-10T01:58:20.910Z,0
2018-05-10T01:59:29.554Z,0
2018-05-10T02:00:38.202Z,0
2018-05-10T02:01:46.850Z,0
2018-05-10T02:02:55.494Z,0
2018-05-10T02:04:04.136Z,0
2018-05-10T02:05:12.781Z,0
2018-05-10T02:06:21.432Z,0
2018-05-10T02:07:30.079Z,0
2018-05-10T02:08:38.728Z,0
2018-05-10T02:09:47.363Z,0
2018-05-10T02:10:56.283Z,0
2018-05-10T02:12:05.197Z,0
2018-05-10T02:13:13.846Z,0
2018-05-10T02:14:22.743Z,0
2018-05-10T02:15:31.397Z,0
2018-05-10T02:16:40.040Z,0
2018-05-10T02:17:48.691Z,0
2018-05-10T02:18:57.328Z,0
2018-05-10T02:20:05.986Z,0
2018-05-10T02:21:14.637Z,0
2018-05-10T02:22:23.288Z,0
2018-05-10T02:23:31.933Z,0
2018-05-10T02:24:40.832Z,0
2018-05-10T02:25:49.755Z,0
2018-05-10T02:26:58.401Z,0
2018-05-10T02:28:07.056Z,0
2018-05-10T02:29:15.696Z,0
2018-05-10T02:30:24.348Z,0
2018-05-10T02:31:33.000Z,0
2018-05-10T02:32:41.655Z,0
2018-05-10T02:33:50.568Z,0
2018-05-10T02:34:59.477Z,0
2018-05-10T02:36:08.123Z,0
2018-05-10T02:37:17.047Z,0
2018-05-10T02:38:25.692Z,0
2018-05-10T02:39:34.610Z,0
2018-05-10T02:40:43.520Z,0
2018-05-10T02:41:52.446Z,0
2018-05-10T02:43:01.391Z,0
2018-05-10T02:44:10.310Z,0
2018-05-10T02:45:18.959Z,0
2018-05-10T02:46:27.863Z,0
2018-05-10T02:47:36.517Z,0
2018-05-10T02:48:45.422Z,0
2018-05-10T02:49:54.069Z,0
2018-05-10T02:51:02.979Z,0
2018-05-10T02:52:11.635Z,0
2018-05-10T02:53:20.279Z,0
2018-05-10T02:54:29.200Z,0
2018-05-10T02:55:37.841Z,0
2018-05-10T02:56:46.493Z,0
2018-05-10T02:57:55.143Z,0
2018-05-10T02:59:04.058Z,0
2018-05-10T03:00:12.709Z,0
2018-05-10T03:01:21.350Z,0
2018-05-10T03:02:30.004Z,0
2018-05-10T03:03:38.642Z,0
2018-05-10T03:04:47.569Z,0
2018-05-10T03:05:56.206Z,0
2018-05-10T03:07:05.126Z,0
2018-05-10T03:08:14.047Z,0
2018-05-10T03:09:22.701Z,0
2018-05-10T03:10:31.610Z,0
2018-05-10T03:11:40.257Z,0
2018-05-10T03:12:48.901Z,0
2018-05-10T03:13:57.561Z,0
2018-05-10T03:15:06.499Z,0
2018-05-10T03:16:15.400Z,0
2018-05-10T03:17:24.053Z,0
2018-05-10T03:18:32.958Z,0
2018-05-10T03:19:41.613Z,0
2018-05-10T03:20:50.256Z,0
2018-05-10T03:21:58.904Z,0
2018-05-10T03:23:07.541Z,0
2018-05-10T03:24:16.199Z,0
2018-05-10T03:25:24.841Z,0
2018-05-10T03:26:33.793Z,0
2018-05-10T03:27:42.430Z,0
2018-05-10T03:28:51.083Z,0
2018-05-10T03:29:59.727Z,0
2018-05-10T03:31:08.664Z,0
2018-05-10T03:32:17.299Z,0
2018-05-10T03:33:25.949Z,0
2018-05-10T03:34:34.599Z,0
2018-05-10T03:35:43.251Z,0
2018-05-10T03:36:52.177Z,0
2018-05-10T03:38:00.799Z,0
2018-05-10T03:39:09.462Z,0
2018-05-10T03:40:18.090Z,0
2018-05-10T03:41:26.745Z,0
2018-05-10T03:42:35.644Z,5
2018-05-10T03:43:44.294Z,5
2018-05-10T03:44:53.391Z,5
2018-05-10T03:46:02.312Z,5
2018-05-10T03:47:11.213Z,5
2018-05-10T03:48:19.862Z,5
2018-05-10T03:49:28.504Z,5
2018-05-10T03:50:37.159Z,5
2018-05-10T03:51:45.803Z,10
2018-05-10T03:52:54.703Z,10
2018-05-10T03:54:03.346Z,10
2018-05-10T03:55:11.989Z,10
2018-05-10T03:56:20.643Z,10
2018-05-10T03:57:29.548Z,15
2018-05-10T03:58:38.200Z,15
2018-05-10T03:59:47.099Z,15
2018-05-10T04:00:55.755Z,15
2018-05-10T04:02:04.400Z,15
2018-05-10T04:03:13.053Z,20
2018-05-10T04:04:21.693Z,20
2018-05-10T04:05:30.613Z,20
2018-05-10T04:06:39.258Z,20
2018-05-10T04:07:47.906Z,25
2018-05-10T04:08:56.547Z,25
2018-05-10T04:10:05.197Z,25
2018-05-10T04:11:13.841Z,25
2018-05-10T04:12:22.490Z,25
2018-05-10T04:13:31.139Z,25
2018-05-10T04:14:39.783Z,30
2018-05-10T04:15:48.426Z,30
2018-05-10T04:16:57.070Z,30
2018-05-10T04:18:05.719Z,30
2018-05-10T04:19:14.364Z,30
2018-05-10T04:20:23.010Z,30
2018-05-10T04:21:31.651Z,30
2018-05-10T04:22:40.303Z,35
2018-05-10T04:23:48.946Z,40
2018-05-10T04:24:57.596Z,45
2018-05-10T04:26:06.237Z,50
2018-05-10T04:27:15.151Z,50
2018-05-10T04:28:24.064Z,55
2018-05-10T04:29:32.709Z,55
2018-05-10T04:30:41.354Z,60
2018-05-10T04:31:49.998Z,65
2018-05-10T04:32:58.652Z,70
2018-05-10T04:34:07.300Z,80
2018-05-10T04:35:15.947Z,80
2018-05-10T04:36:24.667Z,85
2018-05-10T04:37:33.244Z,90
2018-05-10T04:38:41.886Z,95
2018-05-10T04:39:50.532Z,100
2018-05-10T04:40:59.189Z,100
2018-05-10T04:42:07.876Z,105
2018-05-10T04:43:16.489Z,110
2018-05-10T04:44:25.135Z,115
2018-05-10T04:45:33.781Z,115
2018-05-10T04:46:42.438Z,115
2018-05-10T04:47:51.083Z,120
2018-05-10T04:48:59.735Z,120
2018-05-10T04:50:08.383Z,115
2018-05-10T04:51:17.027Z,115
2018-05-10T04:52:25.674Z,110
2018-05-10T04:53:34.322Z,100
2018-05-10T04:54:43.000Z,110
2018-05-10T04:55:51.613Z,105
2018-05-10T04:57:00.526Z,95
2018-05-10T04:58:09.173Z,100
2018-05-10T04:59:17.829Z,95
2018-05-10T05:00:26.472Z,85
2018-05-10T05:01:35.118Z,75
2018-05-10T05:02:43.838Z,65
2018-05-10T05:03:52.402Z,60
2018-05-10T05:05:01.053Z,55
2018-05-10T05:06:09.703Z,60
2018-05-10T05:07:18.615Z,60
2018-05-10T05:08:27.533Z,55
2018-05-10T05:09:36.175Z,55
2018-05-10T05:10:44.823Z,55
2018-05-10T05:11:53.565Z,55
2018-05-10T05:13:02.121Z,50
2018-05-10T05:14:10.760Z,45
2018-05-10T05:15:19.408Z,50
2018-05-10T05:16:28.060Z,55
2018-05-10T05:17:36.709Z,60
2018-05-10T05:18:45.355Z,65
2018-05-10T05:19:54.005Z,70
2018-05-10T05:21:02.649Z,85
2018-05-10T05:22:11.301Z,100
2018-05-10T05:23:19.944Z,105
2018-05-10T05:24:28.597Z,110
2018-05-10T05:25:37.243Z,105
2018-05-10T05:26:45.919Z,100
2018-05-10T05:27:54.540Z,120
2018-05-10T05:29:03.185Z,125
2018-05-10T05:30:11.831Z,125
2018-05-10T05:31:20.475Z,135
2018-05-10T05:32:29.130Z,115
2018-05-10T05:33:38.045Z,95
2018-05-10T05:34:46.693Z,85
2018-05-10T05:35:55.334Z,75
2018-05-10T05:37:03.987Z,70
2018-05-10T05:38:12.632Z,65
2018-05-10T05:39:21.282Z,60
2018-05-10T05:40:29.924Z,55
2018-05-10T05:41:38.571Z,60
2018-05-10T05:42:47.483Z,70
2018-05-10T05:43:56.137Z,80
2018-05-10T05:45:04.783Z,75
2018-05-10T05:46:13.428Z,65
2018-05-10T05:47:22.076Z,75
2018-05-10T05:48:30.721Z,70
2018-05-10T05:49:39.373Z,65
2018-05-10T05:50:48.014Z,65
2018-05-10T05:51:56.660Z,75
2018-05-10T05:53:05.313Z,75
2018-05-10T05:54:13.964Z,80
2018-05-10T05:55:22.609Z,75
2018-05-10T05:56:31.527Z,70
2018-05-10T05:57:40.171Z,65
2018-05-10T05:58:48.823Z,60
2018-05-10T05:59:57.468Z,55
2018-05-10T06:01:06.115Z,50
2018-05-10T06:02:15.027Z,50
2018-05-10T06:03:23.672Z,45
2018-05-10T06:04:32.327Z,45
2018-05-10T06:05:41.330Z,45
2018-05-10T06:06:50.245Z,45
2018-05-10T06:07:59.143Z,40
2018-05-10T06:09:07.799Z,40
2018-05-10T06:10:16.442Z,40
2018-05-10T06:11:25.093Z,45
2018-05-10T06:12:33.994Z,45
2018-05-10T06:13:42.655Z,50
2018-05-10T06:14:51.298Z,55
2018-05-10T06:15:59.993Z,55
2018-05-10T06:17:09.008Z,60
2018-05-10T06:18:17.661Z,60
2018-05-10T06:19:26.311Z,65
2018-05-10T06:20:34.963Z,70
2018-05-10T06:21:43.876Z,75
2018-05-10T06:22:52.513Z,80
2018-05-10T06:24:01.164Z,85
2018-05-10T06:25:09.956Z,100
2018-05-10T06:26:19.004Z,110
2018-05-10T06:27:27.645Z,120
2018-05-10T06:28:36.294Z,130
2018-05-10T06:29:44.938Z,140
2018-05-10T06:30:53.597Z,150
2018-05-10T06:32:02.234Z,155
2018-05-10T06:33:11.151Z,160
2018-05-10T06:34:19.793Z,160
2018-05-10T06:35:28.448Z,160
2018-05-10T06:36:37.095Z,160
2018-05-10T06:37:45.740Z,155
2018-05-10T06:38:54.653Z,160
2018-05-10T06:40:03.298Z,165
2018-05-10T06:41:11.955Z,165
2018-05-10T06:42:20.600Z,170
2018-05-10T06:43:29.522Z,175
2018-05-10T06:44:38.160Z,175
2018-05-10T06:45:46.815Z,190
2018-05-10T06:46:55.509Z,225
2018-05-10T06:48:04.113Z,255
2018-05-10T06:49:12.750Z,275
2018-05-10T06:50:21.404Z,285
2018-05-10T06:51:30.050Z,305
2018-05-10T06:52:38.699Z,315
2018-05-10T06:53:47.335Z,320
2018-05-10T06:54:55.984Z,325
2018-05-10T06:56:04.911Z,315
2018-05-10T06:57:13.554Z,320
2018-05-10T06:58:22.204Z,335
2018-05-10T06:59:30.843Z,335
2018-05-10T07:00:39.763Z,335
2018-05-10T07:01:48.416Z,330
2018-05-10T07:02:57.334Z,315
2018-05-10T07:04:05.974Z,315
2018-05-10T07:05:14.620Z,315
2018-05-10T07:06:23.535Z,310
2018-05-10T07:07:32.191Z,305
2018-05-10T07:08:40.839Z,300
2018-05-10T07:09:49.553Z,295
2018-05-10T07:10:58.131Z,295
2018-05-10T07:12:07.044Z,290
2018-05-10T07:13:15.695Z,275
2018-05-10T07:14:24.342Z,270
2018-05-10T07:15:32.987Z,240
2018-05-10T07:16:41.899Z,245
2018-05-10T07:17:50.815Z,215
2018-05-10T07:18:59.461Z,180
2018-05-10T07:20:08.373Z,155
2018-05-10T07:21:17.016Z,165
2018-05-10T07:22:25.672Z,155
2018-05-10T07:23:34.585Z,150
2018-05-10T07:24:43.233Z,160
2018-05-10T07:25:51.877Z,165
2018-05-10T07:27:00.530Z,175
2018-05-10T07:28:09.172Z,160
2018-05-10T07:29:17.824Z,170
2018-05-10T07:30:26.465Z,175
2018-05-10T07:31:35.117Z,150
2018-05-10T07:32:43.772Z,160
2018-05-10T07:33:52.422Z,190
2018-05-10T07:35:01.072Z,190
2018-05-10T07:36:09.717Z,185
2018-05-10T07:37:18.367Z,190
2018-05-10T07:38:27.275Z,185
2018-05-10T07:39:35.927Z,200
2018-05-10T07:40:44.571Z,220
2018-05-10T07:41:53.221Z,230
2018-05-10T07:43:01.870Z,255
2018-05-10T07:44:10.523Z,265
2018-05-10T07:45:19.430Z,295
2018-05-10T07:46:28.080Z,290
2018-05-10T07:47:36.987Z,305
2018-05-10T07:48:45.639Z,295
2018-05-10T07:49:54.286Z,290
2018-05-10T07:51:02.931Z,285
2018-05-10T07:52:11.580Z,280
2018-05-10T07:53:20.227Z,275
2018-05-10T07:54:28.876Z,275
2018-05-10T07:55:37.523Z,270
2018-05-10T07:56:46.172Z,270
2018-05-10T07:57:54.823Z,275
2018-05-10T07:59:04.007Z,280
2018-05-10T08:00:12.913Z,285
2018-05-10T08:01:21.571Z,280
2018-05-10T08:02:30.208Z,280
2018-05-10T08:03:39.130Z,295
2018-05-10T08:04:47.777Z,295
2018-05-10T08:05:56.434Z,315
2018-05-10T08:07:05.069Z,295
2018-05-10T08:08:14.249Z,290
2018-05-10T08:09:22.903Z,295
2018-05-10T08:10:31.555Z,300
2018-05-10T08:11:40.208Z,310
2018-05-10T08:12:48.923Z,310
2018-05-10T08:13:57.501Z,295
2018-05-10T08:15:06.418Z,305
2018-05-10T08:16:15.078Z,315
2018-05-10T08:17:23.720Z,325
2018-05-10T08:18:32.376Z,335
2018-05-10T08:19:41.283Z,340
2018-05-10T08:20:50.207Z,335
2018-05-10T08:21:59.106Z,320
2018-05-10T08:23:07.760Z,310
2018-05-10T08:24:16.839Z,300
2018-05-10T08:25:25.401Z,285
2018-05-10T08:26:34.050Z,285
2018-05-10T08:27:42.696Z,290
2018-05-10T08:28:51.343Z,315
2018-05-10T08:29:59.995Z,340
2018-05-10T08:31:08.651Z,355
2018-05-10T08:32:17.301Z,350
2018-05-10T08:33:25.956Z,335
2018-05-10T08:34:34.594Z,315
2018-05-10T08:35:43.251Z,295
2018-05-10T08:36:52.001Z,280
2018-05-10T08:38:00.944Z,280
2018-05-10T08:39:09.583Z,290
2018-05-10T08:40:18.245Z,300
2018-05-10T08:41:27.157Z,315
2018-05-10T08:42:36.066Z,325
2018-05-10T08:43:44.712Z,350
2018-05-10T08:44:53.358Z,365
2018-05-10T08:46:02.012Z,365
2018-05-10T08:47:10.668Z,365
2018-05-10T08:48:19.314Z,360
2018-05-10T08:49:27.953Z,350
2018-05-10T08:50:36.613Z,340
2018-05-10T08:51:45.326Z,325
2018-05-10T08:52:53.916Z,300
2018-05-10T08:54:02.564Z,295
2018-05-10T08:55:11.219Z,290
2018-05-10T08:56:19.862Z,285
2018-05-10T08:57:28.778Z,290
2018-05-10T08:58:37.702Z,295
2018-05-10T08:59:46.347Z,285
2018-05-10T09:00:55.001Z,280
2018-05-10T09:02:03.638Z,275
2018-05-10T09:03:12.294Z,280
2018-05-10T09:04:21.218Z,295
2018-05-10T09:05:29.871Z,310
2018-05-10T09:06:38.524Z,315
2018-05-10T09:07:47.164Z,325
2018-05-10T09:08:56.087Z,325
2018-05-10T09:10:04.738Z,325
2018-05-10T09:11:13.390Z,330
2018-05-10T09:12:22.029Z,310
2018-05-10T09:13:30.684Z,315
2018-05-10T09:14:39.333Z,310
2018-05-10T09:15:47.993Z,325
2018-05-10T09:16:56.636Z,320
2018-05-10T09:18:05.550Z,340
2018-05-10T09:19:14.196Z,335
2018-05-10T09:20:23.302Z,345
2018-05-10T09:21:31.878Z,370
2018-05-10T09:22:40.525Z,350
2018-05-10T09:23:49.178Z,355
2018-05-10T09:24:57.826Z,360
2018-05-10T09:26:06.604Z,350
2018-05-10T09:27:15.128Z,335
2018-05-10T09:28:24.048Z,320
2018-05-10T09:29:32.690Z,310
2018-05-10T09:30:41.350Z,295
2018-05-10T09:31:49.996Z,295
2018-05-10T09:32:59.184Z,280
2018-05-10T09:34:07.823Z,275
2018-05-10T09:35:16.480Z,285
2018-05-10T09:36:25.395Z,295
2018-05-10T09:37:34.312Z,335
2018-05-10T09:38:42.954Z,345
2018-05-10T09:39:51.609Z,355
2018-05-10T09:41:00.262Z,370
2018-05-10T09:42:09.179Z,375
2018-05-10T09:43:17.833Z,370
2018-05-10T09:44:26.474Z,350
2018-05-10T09:45:35.128Z,315
2018-05-10T09:46:43.773Z,280
2018-05-10T09:47:52.432Z,245
2018-05-10T09:49:01.076Z,215
2018-05-10T09:50:09.730Z,185
2018-05-10T09:51:18.376Z,160
2018-05-10T09:52:27.037Z,150
2018-05-10T09:53:35.940Z,140
2018-05-10T09:54:44.592Z,130
2018-05-10T09:55:53.241Z,120
2018-05-10T09:57:01.897Z,115
2018-05-10T09:58:10.542Z,115
2018-05-10T09:59:19.192Z,120
2018-05-10T10:00:27.837Z,125
2018-05-10T10:01:36.513Z,130
2018-05-10T10:02:45.416Z,135
2018-05-10T10:03:54.084Z,145
2018-05-10T10:05:02.735Z,160
2018-05-10T10:06:11.395Z,180
2018-05-10T10:07:20.045Z,190
2018-05-10T10:08:28.685Z,205
2018-05-10T10:09:37.334Z,215
2018-05-10T10:10:45.982Z,215
2018-05-10T10:11:55.161Z,200
2018-05-10T10:13:03.807Z,185
2018-05-10T10:14:12.463Z,180
2018-05-10T10:15:21.370Z,175
2018-05-10T10:16:30.030Z,180
2018-05-10T10:17:38.727Z,175
2018-05-10T10:18:47.331Z,165
2018-05-10T10:19:56.265Z,160
2018-05-10T10:21:04.910Z,140
2018-05-10T10:22:13.562Z,125
2018-05-10T10:23:22.212Z,115
2018-05-10T10:24:30.863Z,105
2018-05-10T10:25:39.769Z,95
2018-05-10T10:26:48.960Z,100
2018-05-10T10:27:57.880Z,100
2018-05-10T10:29:06.532Z,105
2018-05-10T10:30:15.442Z,110
2018-05-10T10:31:24.091Z,115
2018-05-10T10:32:33.102Z,115
2018-05-10T10:33:41.755Z,120
2018-05-10T10:34:50.409Z,120
2018-05-10T10:35:59.051Z,140
2018-05-10T10:37:07.701Z,150
2018-05-10T10:38:16.382Z,160
2018-05-10T10:39:25.271Z,170
2018-05-10T10:40:34.184Z,190
2018-05-10T10:41:42.833Z,240
2018-05-10T10:42:51.482Z,280
2018-05-10T10:44:00.141Z,270
2018-05-10T10:45:09.050Z,240
2018-05-10T10:46:17.699Z,215
2018-05-10T10:47:26.341Z,205
2018-05-10T10:48:34.993Z,170
2018-05-10T10:49:43.646Z,150
2018-05-10T10:50:52.296Z,135
2018-05-10T10:52:00.940Z,125
2018-05-10T10:53:09.592Z,115
2018-05-10T10:54:18.239Z,115
2018-05-10T10:55:26.885Z,120
2018-05-10T10:56:35.529Z,120
2018-05-10T10:57:44.185Z,125
2018-05-10T10:58:52.828Z,125
2018-05-10T11:00:01.911Z,125
2018-05-10T11:01:10.498Z,130
2018-05-10T11:02:19.427Z,130
2018-05-10T11:03:28.071Z,125
2018-05-10T11:04:36.724Z,115
2018-05-10T11:05:45.364Z,105
2018-05-10T11:06:54.292Z,95
2018-05-10T11:08:02.938Z,85
2018-05-10T11:09:11.619Z,75
2018-05-10T11:10:20.498Z,65
2018-05-10T11:11:29.149Z,55
2018-05-10T11:12:37.800Z,50
2018-05-10T11:13:46.450Z,45
2018-05-10T11:14:55.163Z,40
2018-05-10T11:16:03.740Z,40
2018-05-10T11:17:12.658Z,40
2018-05-10T11:18:21.301Z,45
2018-05-10T11:19:29.961Z,50
2018-05-10T11:20:38.598Z,50
2018-05-10T11:21:47.248Z,50
2018-05-10T11:22:55.892Z,55
2018-05-10T11:24:04.835Z,55
2018-05-10T11:25:13.473Z,55
2018-05-10T11:26:22.128Z,55
2018-05-10T11:27:30.773Z,60
2018-05-10T11:28:39.429Z,65
2018-05-10T11:29:48.076Z,75
2018-05-10T11:30:56.720Z,80
2018-05-10T11:32:05.366Z,95
2018-05-10T11:33:14.045Z,115
2018-05-10T11:34:22.666Z,130
2018-05-10T11:35:31.317Z,140
2018-05-10T11:36:39.970Z,135
2018-05-10T11:37:48.610Z,115
2018-05-10T11:38:57.267Z,105
2018-05-10T11:40:06.178Z,100
2018-05-10T11:41:14.830Z,105
2018-05-10T11:42:23.468Z,120
2018-05-10T11:43:32.124Z,135
2018-05-10T11:44:40.770Z,155
2018-05-10T11:45:49.419Z,165
2018-05-10T11:46:58.059Z,175
2018-05-10T11:48:06.711Z,180
2018-05-10T11:49:15.363Z,185
2018-05-10T11:50:24.012Z,180
2018-05-10T11:51:32.660Z,180
2018-05-10T11:52:41.300Z,175
2018-05-10T11:53:49.951Z,165
2018-05-10T11:54:58.597Z,155
2018-05-10T11:56:07.249Z,150
2018-05-10T11:57:15.912Z,140
2018-05-10T11:58:24.547Z,140
2018-05-10T11:59:33.191Z,130
2018-05-10T12:00:41.843Z,130
2018-05-10T12:01:50.485Z,125
2018-05-10T12:02:59.141Z,115
2018-05-10T12:04:07.783Z,105
2018-05-10T12:05:16.436Z,100
2018-05-10T12:06:25.083Z,95
2018-05-10T12:07:33.732Z,95
2018-05-10T12:08:42.644Z,95
2018-05-10T12:09:51.290Z,95
2018-05-10T12:10:59.947Z,100
2018-05-10T12:12:08.591Z,100
2018-05-10T12:13:17.239Z,100
2018-05-10T12:14:25.883Z,100
2018-05-10T12:15:34.535Z,100
2018-05-10T12:16:43.185Z,105
2018-05-10T12:17:52.099Z,110
2018-05-10T12:19:01.011Z,115
2018-05-10T12:20:09.923Z,115
2018-05-10T12:21:18.571Z,110
2018-05-10T12:22:27.219Z,110
2018-05-10T12:23:35.868Z,105
2018-05-10T12:24:44.518Z,105
2018-05-10T12:25:53.169Z,95
2018-05-10T12:27:01.818Z,90
2018-05-10T12:28:10.467Z,85
2018-05-10T12:29:19.374Z,90
2018-05-10T12:30:28.469Z,90
2018-05-10T12:31:37.042Z,90
2018-05-10T12:32:45.965Z,95
2018-05-10T12:33:54.868Z,95
2018-05-10T12:35:03.523Z,95
2018-05-10T12:36:12.170Z,100
2018-05-10T12:37:20.846Z,105
2018-05-10T12:38:29.464Z,105
2018-05-10T12:39:38.119Z,110
2018-05-10T12:40:46.757Z,110
2018-05-10T12:41:55.409Z,110
2018-05-10T12:43:04.064Z,110
2018-05-10T12:44:12.703Z,115
2018-05-10T12:45:21.350Z,120
2018-05-10T12:46:29.992Z,115
2018-05-10T12:47:38.645Z,115
2018-05-10T12:48:47.420Z,110
2018-05-10T12:49:55.940Z,105
2018-05-10T12:51:04.582Z,100
2018-05-10T12:52:13.231Z,100
2018-05-10T12:53:21.879Z,95
2018-05-10T12:54:30.527Z,85
2018-05-10T12:55:39.189Z,85
2018-05-10T12:56:48.355Z,80
2018-05-10T12:57:57.001Z,75
2018-05-10T12:59:05.645Z,70
2018-05-10T13:00:14.560Z,70
2018-05-10T13:01:23.204Z,70
2018-05-10T13:02:31.850Z,65
2018-05-10T13:03:40.493Z,65
2018-05-10T13:04:49.136Z,65
2018-05-10T13:05:57.787Z,65
2018-05-10T13:07:06.435Z,65
2018-05-10T13:08:15.109Z,65
2018-05-10T13:09:23.723Z,60
2018-05-10T13:10:32.373Z,55
2018-05-10T13:11:41.020Z,55
2018-05-10T13:12:49.666Z,50
2018-05-10T13:13:58.571Z,50
2018-05-10T13:15:07.221Z,50
2018-05-10T13:16:15.893Z,50
2018-05-10T13:17:24.516Z,50
2018-05-10T13:18:33.159Z,50
2018-05-10T13:19:41.809Z,50
2018-05-10T13:20:50.457Z,50
2018-05-10T13:21:59.495Z,50
2018-05-10T13:23:08.147Z,45
2018-05-10T13:24:16.787Z,45
2018-05-10T13:25:25.961Z,45
2018-05-10T13:26:34.607Z,45
2018-05-10T13:27:43.518Z,45
2018-05-10T13:28:52.531Z,45
2018-05-10T13:30:01.175Z,45
2018-05-10T13:31:09.818Z,45
2018-05-10T13:32:18.469Z,45
2018-05-10T13:33:27.111Z,45
2018-05-10T13:34:35.759Z,45
2018-05-10T13:35:44.403Z,45
2018-05-10T13:36:53.051Z,45
2018-05-10T13:38:01.695Z,45
2018-05-10T13:39:10.343Z,50
2018-05-10T13:40:19.251Z,50
2018-05-10T13:41:27.893Z,50
2018-05-10T13:42:36.541Z,55
2018-05-10T13:43:45.192Z,55
2018-05-10T13:44:53.837Z,55
2018-05-10T13:46:02.481Z,60
2018-05-10T13:47:11.583Z,60
2018-05-10T13:48:20.212Z,60
2018-05-10T13:49:28.858Z,65
2018-05-10T13:50:37.497Z,60
2018-05-10T13:51:46.152Z,60
2018-05-10T13:52:54.803Z,60
2018-05-10T13:54:03.447Z,60
2018-05-10T13:55:12.083Z,55
2018-05-10T13:56:20.730Z,50
2018-05-10T13:57:29.382Z,50
2018-05-10T13:58:38.025Z,50
2018-05-10T13:59:46.676Z,45
2018-05-10T14:00:55.311Z,45
2018-05-10T14:02:03.966Z,45
2018-05-10T14:03:12.606Z,45
2018-05-10T14:04:21.260Z,50
2018-05-10T14:05:29.897Z,50
2018-05-10T14:06:38.553Z,55
2018-05-10T14:07:47.199Z,55
2018-05-10T14:08:55.849Z,55
2018-05-10T14:10:04.486Z,60
2018-05-10T14:11:13.199Z,60
2018-05-10T14:12:21.779Z,65
2018-05-10T14:13:30.519Z,65
2018-05-10T14:14:39.084Z,70
2018-05-10T14:15:47.724Z,75
2018-05-10T14:16:56.372Z,80
2018-05-10T14:18:05.015Z,85
2018-05-10T14:19:13.673Z,90
2018-05-10T14:20:22.314Z,95
2018-05-10T14:21:30.971Z,100
2018-05-10T14:22:39.609Z,105
2018-05-10T14:23:48.266Z,100
2018-05-10T14:24:56.916Z,100
2018-05-10T14:26:05.832Z,105
2018-05-10T14:27:14.737Z,105
2018-05-10T14:28:23.391Z,105
2018-05-10T14:29:32.039Z,105
2018-05-10T14:30:40.688Z,105
2018-05-10T14:31:49.325Z,105
2018-05-10T14:32:57.993Z,105
2018-05-10T14:34:06.904Z,105
2018-05-10T14:35:15.558Z,105
2018-05-10T14:36:24.476Z,105
2018-05-10T14:37:33.114Z,105
2018-05-10T14:38:41.764Z,105
2018-05-10T14:39:50.401Z,100
2018-05-10T14:40:59.057Z,95
2018-05-10T14:42:07.958Z,95
2018-05-10T14:43:16.609Z,95
2018-05-10T14:44:25.247Z,90
2018-05-10T14:45:34.168Z,85
2018-05-10T14:46:42.820Z,85
2018-05-10T14:47:51.456Z,80
2018-05-10T14:49:00.102Z,75
2018-05-10T14:50:08.758Z,75
2018-05-10T14:51:17.932Z,75
2018-05-10T14:52:26.578Z,75
2018-05-10T14:53:35.222Z,75
2018-05-10T14:54:44.126Z,75
2018-05-10T14:55:52.779Z,75
2018-05-10T14:57:01.429Z,75
2018-05-10T14:58:10.074Z,75
2018-05-10T14:59:18.720Z,75
2018-05-10T15:00:27.371Z,80
2018-05-10T15:01:36.280Z,80
2018-05-10T15:02:45.193Z,85
2018-05-10T15:03:53.836Z,80
2018-05-10T15:05:02.509Z,80
2018-05-10T15:06:11.128Z,75
2018-05-10T15:07:19.777Z,70
2018-05-10T15:08:28.430Z,70
2018-05-10T15:09:37.070Z,70
2018-05-10T15:10:45.715Z,70
2018-05-10T15:11:54.414Z,75
2018-05-10T15:13:03.015Z,75
2018-05-10T15:14:11.658Z,75
2018-05-10T15:15:20.566Z,70
2018-05-10T15:16:29.490Z,70
2018-05-10T15:17:38.392Z,75
2018-05-10T15:18:47.035Z,75
2018-05-10T15:19:55.682Z,75
2018-05-10T15:21:04.331Z,75
2018-05-10T15:22:12.982Z,70
2018-05-10T15:23:21.625Z,70
2018-05-10T15:24:30.543Z,70
2018-05-10T15:25:39.186Z,70
2018-05-10T15:26:47.839Z,75
2018-05-10T15:27:56.481Z,80
2018-05-10T15:29:05.129Z,85
2018-05-10T15:30:13.771Z,85
2018-05-10T15:31:22.416Z,85
2018-05-10T15:32:31.073Z,85
2018-05-10T15:33:39.713Z,85
2018-05-10T15:34:48.361Z,85
2018-05-10T15:35:57.003Z,90
2018-05-10T15:37:05.923Z,95
2018-05-10T15:38:14.567Z,100
2018-05-10T15:39:23.214Z,100
2018-05-10T15:40:32.128Z,105
2018-05-10T15:41:40.778Z,105
2018-05-10T15:42:49.424Z,105
2018-05-10T15:43:58.073Z,100
2018-05-10T15:45:06.977Z,100
2018-05-10T15:46:16.171Z,100
2018-05-10T15:47:24.810Z,105
2018-05-10T15:48:33.469Z,105
2018-05-10T15:49:42.426Z,105
2018-05-10T15:50:51.949Z,110
2018-05-10T15:52:00.913Z,115
2018-05-10T15:53:09.555Z,120
2018-05-10T15:54:18.214Z,115
2018-05-10T15:55:26.856Z,110
2018-05-10T15:56:35.514Z,105
2018-05-10T15:57:44.157Z,95
2018-05-10T15:58:52.811Z,95
2018-05-10T16:00:01.450Z,90
2018-05-10T16:01:10.098Z,90
2018-05-10T16:02:18.742Z,90
2018-05-10T16:03:27.404Z,90
2018-05-10T16:04:36.049Z,90
2018-05-10T16:05:44.692Z,90
2018-05-10T16:06:53.341Z,90
2018-05-10T16:08:02.251Z,90
2018-05-10T16:09:10.911Z,95
2018-05-10T16:10:19.819Z,95
2018-05-10T16:11:28.467Z,95
2018-05-10T16:12:37.111Z,95